PWSweather.com
Personal Weather Stations
Station Observations
WAIROAHB
Wairoa, Northern Hawkes Bay -NZ 4108

WairoaNorthern Hawkes Bay -NZ 4108

Lat: -39.04516934, Lon: 177.4263989

Elevation: 156

Station Type: WS3083

http://wairoa.net/weather/index.htm

High Low Average
Temperature 72.7°F22.6°C 58.3°F14.6°C 66.6°F19.2°C
Dew Point 66.0°F18.9°C 57.4°F14.1°C 61.1°F16.2°C
Winds 11.4 mph 18.3 kmh Calm Calm 4.0 mph SSE6.4 kmh SSE
Wind Gusts 17.4 mph28.0 kmh -- 9.0 mph14.5 kmh
Humidity 99% 63% 83%
Pressure 30.59 in1035.9 mb 30.21 in1023.0 mb -
Precipitation 0.37 in9.4 mm - -
Hour Temp Dew Point Humidity Winds Wind Gusts Pressure Precip Precip Rate Daily Precip Total
12:00 AM 71.1°F21.7°C 62.4°F16.9°C 74% 6.0 mph NW9.7 kmh NW 11.4 mph18.3 kmh 30.49 in1032.5 mb 0.00 in0.0 mm 0.00 in0.0 mm 0.00 in0.0 mm
12:10 AM 71.1°F21.7°C 62.8°F17.1°C 75% 5.4 mph WSW8.7 kmh WSW 9.8 mph15.8 kmh 30.49 in1032.5 mb 0.00 in0.0 mm 0.00 in0.0 mm 0.00 in0.0 mm
12:20 AM 70.9°F21.6°C 61.8°F16.6°C 73% 6.0 mph W9.7 kmh W 13.0 mph20.9 kmh 30.49 in1032.5 mb 0.00 in0.0 mm 0.00 in0.0 mm 0.00 in0.0 mm
12:30 AM 70.9°F21.6°C 62.6°F17.0°C 75% 5.4 mph W8.7 kmh W 13.6 mph21.9 kmh 30.49 in1032.5 mb 0.00 in0.0 mm 0.00 in0.0 mm 0.00 in0.0 mm
12:40 AM 70.7°F21.5°C 60.9°F16.1°C 71% 4.5 mph WNW7.2 kmh WNW 10.7 mph17.2 kmh 30.49 in1032.5 mb 0.00 in0.0 mm 0.00 in0.0 mm 0.00 in0.0 mm
12:50 AM 70.7°F21.5°C 61.6°F16.4°C 73% 7.6 mph WNW12.2 kmh WNW 9.8 mph15.8 kmh 30.49 in1032.5 mb 0.00 in0.0 mm 0.00 in0.0 mm 0.00 in0.0 mm
01:00 AM 70.7°F21.5°C 62.0°F16.7°C 74% 6.9 mph WSW11.1 kmh WSW 9.8 mph15.8 kmh 30.49 in1032.5 mb 0.00 in0.0 mm 0.00 in0.0 mm 0.00 in0.0 mm
01:10 AM 70.5°F21.4°C 61.5°F16.4°C 73% 3.8 mph WSW6.1 kmh WSW 10.7 mph17.2 kmh 30.49 in1032.5 mb 0.00 in0.0 mm 0.00 in0.0 mm 0.00 in0.0 mm
01:20 AM 70.5°F21.4°C 61.9°F16.6°C 74% 6.0 mph SW9.7 kmh SW 13.0 mph20.9 kmh 30.49 in1032.5 mb 0.00 in0.0 mm 0.00 in0.0 mm 0.00 in0.0 mm
01:30 AM 70.3°F21.3°C 61.7°F16.5°C 74% 5.4 mph WSW8.7 kmh WSW 13.0 mph20.9 kmh 30.49 in1032.5 mb 0.00 in0.0 mm 0.00 in0.0 mm 0.00 in0.0 mm
01:40 AM 70.2°F21.2°C 62.3°F16.8°C 76% 5.4 mph WNW8.7 kmh WNW 11.4 mph18.3 kmh 30.48 in1032.2 mb 0.00 in0.0 mm 0.00 in0.0 mm 0.00 in0.0 mm
01:50 AM 70.0°F21.1°C 62.8°F17.1°C 78% 3.8 mph WSW6.1 kmh WSW 9.2 mph14.8 kmh 30.49 in1032.5 mb 0.00 in0.0 mm 0.00 in0.0 mm 0.00 in0.0 mm
02:00 AM 70.0°F21.1°C 63.2°F17.3°C 79% 3.1 mph SSW5.0 kmh SSW 12.1 mph19.5 kmh 30.48 in1032.2 mb 0.00 in0.0 mm 0.00 in0.0 mm 0.00 in0.0 mm
02:10 AM 69.8°F21.0°C 60.0°F15.6°C 71% 8.3 mph E13.4 kmh E 13.0 mph20.9 kmh 30.49 in1032.5 mb 0.00 in0.0 mm 0.00 in0.0 mm 0.00 in0.0 mm
02:20 AM 69.8°F21.0°C 60.8°F16.0°C 73% 6.9 mph NW11.1 kmh NW 13.0 mph20.9 kmh 30.49 in1032.5 mb 0.00 in0.0 mm 0.00 in0.0 mm 0.00 in0.0 mm
02:30 AM 69.6°F20.9°C 61.4°F16.3°C 75% 8.3 mph W13.4 kmh W 11.4 mph18.3 kmh 30.49 in1032.5 mb 0.00 in0.0 mm 0.00 in0.0 mm 0.00 in0.0 mm
02:40 AM 69.6°F20.9°C 62.1°F16.7°C 77% 3.8 mph W6.1 kmh W 12.1 mph19.5 kmh 30.49 in1032.5 mb 0.00 in0.0 mm 0.00 in0.0 mm 0.00 in0.0 mm
02:50 AM 69.6°F20.9°C 63.9°F17.7°C 82% 8.3 mph WNW13.4 kmh WNW 10.7 mph17.2 kmh 30.49 in1032.5 mb 0.00 in0.0 mm 0.00 in0.0 mm 0.00 in0.0 mm
03:00 AM 69.4°F20.8°C 64.4°F18.0°C 84% 6.9 mph W11.1 kmh W 12.1 mph19.5 kmh 30.49 in1032.5 mb 0.00 in0.0 mm 0.00 in0.0 mm 0.00 in0.0 mm
03:10 AM 69.4°F20.8°C 65.1°F18.4°C 86% 3.8 mph NNE6.1 kmh NNE 9.8 mph15.8 kmh 30.49 in1032.5 mb 0.00 in0.0 mm 0.00 in0.0 mm 0.00 in0.0 mm
03:20 AM 69.1°F20.6°C 64.4°F18.0°C 85% 4.5 mph NW7.2 kmh NW 10.7 mph17.2 kmh 30.49 in1032.5 mb 0.00 in0.0 mm 0.00 in0.0 mm 0.00 in0.0 mm
03:30 AM 69.1°F20.6°C 64.7°F18.2°C 86% 5.4 mph WSW8.7 kmh WSW 13.0 mph20.9 kmh 30.49 in1032.5 mb 0.00 in0.0 mm 0.00 in0.0 mm 0.00 in0.0 mm
03:40 AM 68.9°F20.5°C 64.9°F18.3°C 87% 3.1 mph NW5.0 kmh NW 11.4 mph18.3 kmh 30.49 in1032.5 mb 0.00 in0.0 mm 0.00 in0.0 mm 0.00 in0.0 mm
03:50 AM 68.4°F20.2°C 64.4°F18.0°C 87% 2.2 mph SSE3.5 kmh SSE 7.6 mph12.2 kmh 30.50 in1032.8 mb 0.00 in0.0 mm 0.00 in0.0 mm 0.00 in0.0 mm
04:00 AM 68.2°F20.1°C 64.5°F18.1°C 88% 5.4 mph SSW8.7 kmh SSW 7.6 mph12.2 kmh 30.50 in1032.8 mb 0.00 in0.0 mm 0.00 in0.0 mm 0.00 in0.0 mm
04:10 AM 68.2°F20.1°C 64.5°F18.1°C 88% 6.0 mph N9.7 kmh N 7.6 mph12.2 kmh 30.50 in1032.8 mb 0.00 in0.0 mm 0.00 in0.0 mm 0.00 in0.0 mm
04:20 AM 68.4°F20.2°C 64.7°F18.2°C 88% 4.5 mph W7.2 kmh W 6.9 mph11.1 kmh 30.51 in1033.2 mb 0.00 in0.0 mm 0.00 in0.0 mm 0.00 in0.0 mm
04:30 AM 68.5°F20.3°C 64.5°F18.1°C 87% 3.1 mph W5.0 kmh W 6.9 mph11.1 kmh 30.51 in1033.2 mb 0.00 in0.0 mm 0.00 in0.0 mm 0.00 in0.0 mm
04:40 AM 68.5°F20.3°C 64.5°F18.1°C 87% 3.8 mph W6.1 kmh W 7.6 mph12.2 kmh 30.51 in1033.2 mb 0.00 in0.0 mm 0.00 in0.0 mm 0.00 in0.0 mm
04:50 AM 68.0°F20.0°C 64.3°F17.9°C 88% 5.4 mph WSW8.7 kmh WSW 10.7 mph17.2 kmh 30.51 in1033.2 mb 0.00 in0.0 mm 0.00 in0.0 mm 0.00 in0.0 mm
05:00 AM 66.7°F19.3°C 64.7°F18.2°C 93% 3.1 mph SW5.0 kmh SW 13.6 mph21.9 kmh 30.52 in1033.5 mb 0.00 in0.0 mm 0.00 in0.0 mm 0.00 in0.0 mm
05:10 AM 66.2°F19.0°C 64.8°F18.2°C 95% 6.9 mph SW11.1 kmh SW 11.4 mph18.3 kmh 30.52 in1033.5 mb 0.00 in0.0 mm 0.00 in0.0 mm 0.00 in0.0 mm
05:20 AM 65.8°F18.8°C 65.0°F18.3°C 97% 6.9 mph SW11.1 kmh SW 15.2 mph24.5 kmh 30.53 in1033.9 mb 0.00 in0.0 mm 0.00 in0.0 mm 0.00 in0.0 mm
05:30 AM 64.8°F18.2°C 63.9°F17.7°C 97% 3.8 mph WSW6.1 kmh WSW 13.6 mph21.9 kmh 30.52 in1033.5 mb 0.00 in0.0 mm 0.00 in0.0 mm 0.00 in0.0 mm
05:40 AM 63.9°F17.7°C 62.7°F17.1°C 96% 4.5 mph WSW7.2 kmh WSW 13.6 mph21.9 kmh 30.53 in1033.9 mb 0.04 in1.0 mm 0.24 in6.1 mm 0.04 in1.0 mm
05:50 AM 63.0°F17.2°C 62.1°F16.7°C 97% 1.6 mph W2.6 kmh W 13.0 mph20.9 kmh 30.54 in1034.2 mb 0.11 in2.8 mm 0.42 in10.7 mm 0.11 in2.8 mm
06:00 AM 63.0°F17.2°C 62.1°F16.7°C 97% 0.7 mph NNW1.1 kmh NNW 6.9 mph11.1 kmh 30.54 in1034.2 mb 0.11 in2.8 mm 0.00 in0.0 mm 0.11 in2.8 mm
06:10 AM 63.0°F17.2°C 62.1°F16.7°C 97% 3.8 mph N6.1 kmh N 9.8 mph15.8 kmh 30.54 in1034.2 mb 0.13 in3.3 mm 0.12 in3.0 mm 0.13 in3.3 mm
06:20 AM 62.6°F17.0°C 61.8°F16.6°C 97% Calm Calm 7.6 mph12.2 kmh 30.55 in1034.5 mb 0.18 in4.6 mm 0.30 in7.6 mm 0.18 in4.6 mm
06:30 AM 62.4°F16.9°C 61.9°F16.6°C 98% Calm Calm 5.4 mph8.7 kmh 30.55 in1034.5 mb 0.20 in5.1 mm 0.12 in3.0 mm 0.20 in5.1 mm
06:40 AM 62.1°F16.7°C 61.5°F16.4°C 98% 0.7 mph W1.1 kmh W 5.4 mph8.7 kmh 30.55 in1034.5 mb 0.18 in4.6 mm 0.00 in0.0 mm 0.21 in5.3 mm
06:50 AM 62.1°F16.7°C 61.5°F16.4°C 98% 4.5 mph NW7.2 kmh NW 7.6 mph12.2 kmh 30.56 in1034.9 mb 0.12 in3.0 mm 0.00 in0.0 mm 0.22 in5.6 mm
07:00 AM 62.1°F16.7°C 61.5°F16.4°C 98% 6.9 mph NW11.1 kmh NW 9.2 mph14.8 kmh 30.56 in1034.9 mb 0.13 in3.3 mm 0.01 in0.3 mm 0.24 in6.1 mm
07:10 AM 62.2°F16.8°C 61.7°F16.5°C 98% 4.5 mph NNW7.2 kmh NNW 9.8 mph15.8 kmh 30.56 in1034.9 mb 0.11 in2.8 mm 0.00 in0.0 mm 0.24 in6.1 mm
07:20 AM 62.6°F17.0°C 61.8°F16.6°C 97% 1.6 mph NW2.6 kmh NW 8.3 mph13.4 kmh 30.56 in1034.9 mb 0.06 in1.5 mm 0.00 in0.0 mm 0.24 in6.1 mm
07:30 AM 62.8°F17.1°C 61.9°F16.6°C 97% 2.2 mph WNW3.5 kmh WNW 8.3 mph13.4 kmh 30.56 in1034.9 mb 0.04 in1.0 mm 0.00 in0.0 mm 0.24 in6.1 mm
07:40 AM 62.8°F17.1°C 61.9°F16.6°C 97% Calm Calm 6.0 mph9.7 kmh 30.57 in1035.2 mb 0.02 in0.5 mm 0.00 in0.0 mm 0.24 in6.1 mm
07:50 AM 62.4°F16.9°C 61.9°F16.6°C 98% 3.1 mph NNW5.0 kmh NNW 6.0 mph9.7 kmh 30.57 in1035.2 mb 0.01 in0.3 mm 0.00 in0.0 mm 0.24 in6.1 mm
08:00 AM 62.6°F17.0°C 61.8°F16.6°C 97% 2.2 mph NNW3.5 kmh NNW 6.0 mph9.7 kmh 30.57 in1035.2 mb 0.00 in0.0 mm 0.00 in0.0 mm 0.24 in6.1 mm
08:10 AM 62.8°F17.1°C 61.9°F16.6°C 97% Calm Calm 3.8 mph6.1 kmh 30.58 in1035.6 mb 0.00 in0.0 mm 0.00 in0.0 mm 0.24 in6.1 mm
08:20 AM 63.1°F17.3°C 62.3°F16.8°C 97% Calm Calm 1.6 mph2.6 kmh 30.58 in1035.6 mb 0.00 in0.0 mm 0.00 in0.0 mm 0.24 in6.1 mm
08:50 AM 62.2°F16.8°C 61.7°F16.5°C 98% 5.4 mph NNW8.7 kmh NNW 6.0 mph9.7 kmh 30.59 in1035.9 mb 0.05 in1.3 mm 0.10 in2.5 mm 0.28 in7.1 mm
09:00 AM 62.4°F16.9°C 61.9°F16.6°C 98% 2.2 mph N3.5 kmh N 5.4 mph8.7 kmh 30.23 in1023.7 mb 0.06 in1.5 mm 0.01 in0.3 mm 0.30 in7.6 mm
09:10 AM 62.6°F17.0°C 61.8°F16.6°C 97% 1.6 mph NNW2.6 kmh NNW 4.5 mph7.2 kmh 30.22 in1023.4 mb 0.08 in2.0 mm 0.12 in3.0 mm 0.32 in8.1 mm
09:20 AM 62.8°F17.1°C 61.9°F16.6°C 97% 3.8 mph NNW6.1 kmh NNW 5.4 mph8.7 kmh 30.23 in1023.7 mb 0.11 in2.8 mm 0.18 in4.6 mm 0.34 in8.6 mm
09:30 AM 63.0°F17.2°C 62.1°F16.7°C 97% 3.8 mph NW6.1 kmh NW 5.4 mph8.7 kmh 30.23 in1023.7 mb 0.11 in2.8 mm 0.00 in0.0 mm 0.34 in8.6 mm
09:40 AM 63.0°F17.2°C 62.1°F16.7°C 97% 2.2 mph NW3.5 kmh NW 4.5 mph7.2 kmh 30.23 in1023.7 mb 0.09 in2.3 mm 0.00 in0.0 mm 0.34 in8.6 mm
09:50 AM 63.7°F17.6°C 62.8°F17.1°C 97% 2.2 mph NW3.5 kmh NW 3.8 mph6.1 kmh 30.23 in1023.7 mb 0.06 in1.5 mm 0.00 in0.0 mm 0.34 in8.6 mm
10:00 AM 63.7°F17.6°C 62.8°F17.1°C 97% Calm Calm 3.8 mph6.1 kmh 30.23 in1023.7 mb 0.05 in1.3 mm 0.00 in0.0 mm 0.34 in8.6 mm
10:10 AM 63.9°F17.7°C 63.0°F17.2°C 97% Calm Calm 3.8 mph6.1 kmh 30.23 in1023.7 mb 0.04 in1.0 mm 0.00 in0.0 mm 0.35 in8.9 mm
10:20 AM 64.8°F18.2°C 64.5°F18.1°C 99% Calm Calm 3.1 mph5.0 kmh 30.23 in1023.7 mb 0.01 in0.3 mm 0.00 in0.0 mm 0.35 in8.9 mm
10:30 AM 65.8°F18.8°C 65.6°F18.7°C 99% Calm Calm -- 30.23 in1023.7 mb 0.01 in0.3 mm 0.00 in0.0 mm 0.35 in8.9 mm
10:40 AM 66.2°F19.0°C 65.9°F18.8°C 99% 6.9 mph SE11.1 kmh SE 12.1 mph19.5 kmh 30.24 in1024.0 mb 0.01 in0.3 mm 0.00 in0.0 mm 0.35 in8.9 mm
10:50 AM 67.1°F19.5°C 66.0°F18.9°C 96% 6.0 mph E9.7 kmh E 13.0 mph20.9 kmh 30.24 in1024.0 mb 0.01 in0.3 mm 0.00 in0.0 mm 0.35 in8.9 mm
11:00 AM 68.0°F20.0°C 64.3°F17.9°C 88% 6.9 mph ESE11.1 kmh ESE 15.9 mph25.6 kmh 30.24 in1024.0 mb 0.01 in0.3 mm 0.00 in0.0 mm 0.35 in8.9 mm
11:10 AM 68.4°F20.2°C 64.0°F17.8°C 86% 9.8 mph SE15.8 kmh SE 15.9 mph25.6 kmh 30.24 in1024.0 mb 0.00 in0.0 mm 0.00 in0.0 mm 0.35 in8.9 mm
11:20 AM 68.4°F20.2°C 64.0°F17.8°C 86% 8.3 mph SE13.4 kmh SE 14.5 mph23.3 kmh 30.25 in1024.4 mb 0.00 in0.0 mm 0.00 in0.0 mm 0.35 in8.9 mm
11:30 AM 67.6°F19.8°C 63.7°F17.6°C 87% 6.0 mph ESE9.7 kmh ESE 14.5 mph23.3 kmh 30.25 in1024.4 mb 0.00 in0.0 mm 0.00 in0.0 mm 0.35 in8.9 mm
11:40 AM 67.5°F19.7°C 64.1°F17.8°C 89% 5.4 mph ESE8.7 kmh ESE 10.7 mph17.2 kmh 30.25 in1024.4 mb 0.00 in0.0 mm 0.00 in0.0 mm 0.35 in8.9 mm
11:50 AM 68.4°F20.2°C 64.4°F18.0°C 87% 3.1 mph E5.0 kmh E 8.3 mph13.4 kmh 30.25 in1024.4 mb 0.00 in0.0 mm 0.00 in0.0 mm 0.35 in8.9 mm
12:00 PM 68.5°F20.3°C 63.9°F17.7°C 85% 8.3 mph E13.4 kmh E 12.1 mph19.5 kmh 30.25 in1024.4 mb 0.00 in0.0 mm 0.00 in0.0 mm 0.35 in8.9 mm
12:10 PM 68.9°F20.5°C 63.9°F17.7°C 84% 6.0 mph ESE9.7 kmh ESE 12.1 mph19.5 kmh 30.25 in1024.4 mb 0.00 in0.0 mm 0.00 in0.0 mm 0.35 in8.9 mm
12:20 PM 69.1°F20.6°C 64.1°F17.8°C 84% 5.4 mph E8.7 kmh E 9.2 mph14.8 kmh 30.25 in1024.4 mb 0.00 in0.0 mm 0.00 in0.0 mm 0.35 in8.9 mm
12:50 PM 68.9°F20.5°C 61.8°F16.6°C 78% 7.6 mph ESE12.2 kmh ESE 12.1 mph19.5 kmh 30.25 in1024.4 mb 0.00 in0.0 mm 0.00 in0.0 mm 0.35 in8.9 mm
01:00 PM 69.4°F20.8°C 61.2°F16.2°C 75% 9.2 mph SE14.8 kmh SE 13.0 mph20.9 kmh 30.25 in1024.4 mb 0.00 in0.0 mm 0.00 in0.0 mm 0.35 in8.9 mm
01:10 PM 70.7°F21.5°C 62.0°F16.7°C 74% 8.3 mph ESE13.4 kmh ESE 13.0 mph20.9 kmh 30.24 in1024.0 mb 0.00 in0.0 mm 0.00 in0.0 mm 0.35 in8.9 mm
01:20 PM 71.1°F21.7°C 62.0°F16.7°C 73% 8.3 mph ESE13.4 kmh ESE 12.1 mph19.5 kmh 30.24 in1024.0 mb 0.00 in0.0 mm 0.00 in0.0 mm 0.35 in8.9 mm
01:30 PM 70.5°F21.4°C 61.1°F16.2°C 72% 9.2 mph ESE14.8 kmh ESE 15.2 mph24.5 kmh 30.24 in1024.0 mb 0.01 in0.3 mm 0.06 in1.5 mm 0.37 in9.4 mm
01:40 PM 70.3°F21.3°C 60.1°F15.6°C 70% 7.6 mph ESE12.2 kmh ESE 15.2 mph24.5 kmh 30.24 in1024.0 mb 0.01 in0.3 mm 0.00 in0.0 mm 0.37 in9.4 mm
01:50 PM 70.3°F21.3°C 60.5°F15.8°C 71% 8.3 mph SE13.4 kmh SE 14.5 mph23.3 kmh 30.24 in1024.0 mb 0.01 in0.3 mm 0.00 in0.0 mm 0.37 in9.4 mm
02:00 PM 70.5°F21.4°C 59.9°F15.5°C 69% 6.9 mph SE11.1 kmh SE 14.5 mph23.3 kmh 30.25 in1024.4 mb 0.01 in0.3 mm 0.00 in0.0 mm 0.37 in9.4 mm
02:10 PM 70.5°F21.4°C 59.9°F15.5°C 69% 6.0 mph ESE9.7 kmh ESE 15.2 mph24.5 kmh 30.25 in1024.4 mb 0.01 in0.3 mm 0.00 in0.0 mm 0.37 in9.4 mm
02:20 PM 70.9°F21.6°C 59.8°F15.4°C 68% 7.6 mph SE12.2 kmh SE 14.5 mph23.3 kmh 30.25 in1024.4 mb 0.01 in0.3 mm 0.00 in0.0 mm 0.37 in9.4 mm
02:40 PM 72.0°F22.2°C 58.7°F14.8°C 63% 8.3 mph SE13.4 kmh SE 17.4 mph28.0 kmh 30.25 in1024.4 mb 0.00 in0.0 mm 0.00 in0.0 mm 0.37 in9.4 mm
02:50 PM 70.3°F21.3°C 58.9°F14.9°C 67% 7.6 mph SE12.2 kmh SE 16.8 mph27.0 kmh 30.24 in1024.0 mb 0.00 in0.0 mm 0.00 in0.0 mm 0.37 in9.4 mm
03:00 PM 70.2°F21.2°C 60.3°F15.7°C 71% 10.7 mph SE17.2 kmh SE 17.4 mph28.0 kmh 30.24 in1024.0 mb 0.00 in0.0 mm 0.00 in0.0 mm 0.37 in9.4 mm
03:10 PM 70.2°F21.2°C 59.1°F15.1°C 68% 3.8 mph ESE6.1 kmh ESE 17.4 mph28.0 kmh 30.24 in1024.0 mb 0.00 in0.0 mm 0.00 in0.0 mm 0.37 in9.4 mm
03:20 PM 70.5°F21.4°C 59.5°F15.3°C 68% 8.3 mph SE13.4 kmh SE 13.0 mph20.9 kmh 30.25 in1024.4 mb 0.00 in0.0 mm 0.00 in0.0 mm 0.37 in9.4 mm
03:30 PM 71.1°F21.7°C 60.0°F15.6°C 68% 5.4 mph ESE8.7 kmh ESE 16.8 mph27.0 kmh 30.24 in1024.0 mb 0.00 in0.0 mm 0.00 in0.0 mm 0.37 in9.4 mm
03:40 PM 71.8°F22.1°C 59.0°F15.0°C 64% 7.6 mph ESE12.2 kmh ESE 14.5 mph23.3 kmh 30.24 in1024.0 mb 0.00 in0.0 mm 0.00 in0.0 mm 0.37 in9.4 mm
03:50 PM 71.4°F21.9°C 59.9°F15.5°C 67% 6.9 mph SE11.1 kmh SE 14.5 mph23.3 kmh 30.24 in1024.0 mb 0.00 in0.0 mm 0.00 in0.0 mm 0.37 in9.4 mm
04:00 PM 72.7°F22.6°C 59.4°F15.2°C 63% 11.4 mph SE18.3 kmh SE 16.8 mph27.0 kmh 30.23 in1023.7 mb 0.00 in0.0 mm 0.00 in0.0 mm 0.37 in9.4 mm
04:10 PM 72.1°F22.3°C 59.3°F15.2°C 64% 6.0 mph SE9.7 kmh SE 15.2 mph24.5 kmh 30.23 in1023.7 mb 0.00 in0.0 mm 0.00 in0.0 mm 0.37 in9.4 mm
04:20 PM 71.8°F22.1°C 59.4°F15.2°C 65% 5.4 mph ESE8.7 kmh ESE 13.0 mph20.9 kmh 30.23 in1023.7 mb 0.00 in0.0 mm 0.00 in0.0 mm 0.37 in9.4 mm
04:30 PM 71.6°F22.0°C 58.4°F14.7°C 63% 7.6 mph ESE12.2 kmh ESE 13.6 mph21.9 kmh 30.23 in1023.7 mb 0.00 in0.0 mm 0.00 in0.0 mm 0.37 in9.4 mm
04:40 PM 70.2°F21.2°C 57.9°F14.4°C 65% 6.0 mph SE9.7 kmh SE 12.1 mph19.5 kmh 30.22 in1023.4 mb 0.00 in0.0 mm 0.00 in0.0 mm 0.37 in9.4 mm
04:50 PM 69.6°F20.9°C 58.6°F14.8°C 68% 4.5 mph ESE7.2 kmh ESE 13.6 mph21.9 kmh 30.22 in1023.4 mb 0.00 in0.0 mm 0.00 in0.0 mm 0.37 in9.4 mm
05:00 PM 69.4°F20.8°C 58.9°F14.9°C 69% 7.6 mph SE12.2 kmh SE 13.0 mph20.9 kmh 30.23 in1023.7 mb 0.00 in0.0 mm 0.00 in0.0 mm 0.37 in9.4 mm
05:10 PM 68.9°F20.5°C 58.3°F14.6°C 69% 8.3 mph ESE13.4 kmh ESE 13.6 mph21.9 kmh 30.23 in1023.7 mb 0.00 in0.0 mm 0.00 in0.0 mm 0.37 in9.4 mm
05:20 PM 68.9°F20.5°C 59.5°F15.3°C 72% 6.9 mph ESE11.1 kmh ESE 14.5 mph23.3 kmh 30.22 in1023.4 mb 0.00 in0.0 mm 0.00 in0.0 mm 0.37 in9.4 mm
05:30 PM 68.9°F20.5°C 59.1°F15.1°C 71% 6.9 mph E11.1 kmh E 16.8 mph27.0 kmh 30.22 in1023.4 mb 0.00 in0.0 mm 0.00 in0.0 mm 0.37 in9.4 mm
05:40 PM 68.5°F20.3°C 59.2°F15.1°C 72% 9.8 mph SE15.8 kmh SE 17.4 mph28.0 kmh 30.22 in1023.4 mb 0.00 in0.0 mm 0.00 in0.0 mm 0.37 in9.4 mm
05:50 PM 68.4°F20.2°C 59.4°F15.2°C 73% 6.0 mph SE9.7 kmh SE 17.4 mph28.0 kmh 30.22 in1023.4 mb 0.00 in0.0 mm 0.00 in0.0 mm 0.37 in9.4 mm
06:00 PM 68.4°F20.2°C 59.0°F15.0°C 72% 10.7 mph ESE17.2 kmh ESE 13.6 mph21.9 kmh 30.22 in1023.4 mb 0.00 in0.0 mm 0.00 in0.0 mm 0.37 in9.4 mm
06:10 PM 68.2°F20.1°C 58.8°F14.9°C 72% 5.4 mph E8.7 kmh E 13.6 mph21.9 kmh 30.22 in1023.4 mb 0.00 in0.0 mm 0.00 in0.0 mm 0.37 in9.4 mm
06:20 PM 67.8°F19.9°C 58.9°F14.9°C 73% 7.6 mph E12.2 kmh E 14.5 mph23.3 kmh 30.23 in1023.7 mb 0.00 in0.0 mm 0.00 in0.0 mm 0.37 in9.4 mm
06:30 PM 67.5°F19.7°C 58.9°F14.9°C 74% 5.4 mph E8.7 kmh E 13.0 mph20.9 kmh 30.23 in1023.7 mb 0.00 in0.0 mm 0.00 in0.0 mm 0.37 in9.4 mm
06:40 PM 67.3°F19.6°C 58.7°F14.8°C 74% 3.1 mph ESE5.0 kmh ESE 11.4 mph18.3 kmh 30.23 in1023.7 mb 0.00 in0.0 mm 0.00 in0.0 mm 0.37 in9.4 mm
06:50 PM 67.1°F19.5°C 58.6°F14.8°C 74% 4.5 mph E7.2 kmh E 8.3 mph13.4 kmh 30.23 in1023.7 mb 0.00 in0.0 mm 0.00 in0.0 mm 0.37 in9.4 mm
07:00 PM 67.1°F19.5°C 58.9°F14.9°C 75% 4.5 mph E7.2 kmh E 9.2 mph14.8 kmh 30.23 in1023.7 mb 0.00 in0.0 mm 0.00 in0.0 mm 0.37 in9.4 mm
07:10 PM 66.7°F19.3°C 58.6°F14.8°C 75% 3.1 mph E5.0 kmh E 10.7 mph17.2 kmh 30.23 in1023.7 mb 0.00 in0.0 mm 0.00 in0.0 mm 0.37 in9.4 mm
07:20 PM 66.6°F19.2°C 58.4°F14.7°C 75% 3.1 mph E5.0 kmh E 7.6 mph12.2 kmh 30.23 in1023.7 mb 0.00 in0.0 mm 0.00 in0.0 mm 0.37 in9.4 mm
07:30 PM 66.2°F19.0°C 58.4°F14.7°C 76% 3.8 mph E6.1 kmh E 9.2 mph14.8 kmh 30.24 in1024.0 mb 0.00 in0.0 mm 0.00 in0.0 mm 0.37 in9.4 mm
07:40 PM 66.0°F18.9°C 59.0°F15.0°C 78% 3.1 mph ENE5.0 kmh ENE 6.9 mph11.1 kmh 30.24 in1024.0 mb 0.00 in0.0 mm 0.00 in0.0 mm 0.37 in9.4 mm
07:50 PM 65.8°F18.8°C 58.8°F14.9°C 78% 3.8 mph E6.1 kmh E 8.3 mph13.4 kmh 30.25 in1024.4 mb 0.00 in0.0 mm 0.00 in0.0 mm 0.37 in9.4 mm
08:00 PM 65.7°F18.7°C 58.6°F14.8°C 78% 3.8 mph ESE6.1 kmh ESE 7.6 mph12.2 kmh 30.24 in1024.0 mb 0.00 in0.0 mm 0.00 in0.0 mm 0.37 in9.4 mm
08:10 PM 65.5°F18.6°C 58.5°F14.7°C 78% 3.1 mph E5.0 kmh E 6.9 mph11.1 kmh 30.24 in1024.0 mb 0.00 in0.0 mm 0.00 in0.0 mm 0.37 in9.4 mm
08:20 PM 64.8°F18.2°C 58.1°F14.5°C 79% 4.5 mph ENE7.2 kmh ENE 7.6 mph12.2 kmh 30.24 in1024.0 mb 0.00 in0.0 mm 0.00 in0.0 mm 0.37 in9.4 mm
08:30 PM 64.8°F18.2°C 58.5°F14.7°C 80% 2.2 mph E3.5 kmh E 8.3 mph13.4 kmh 30.24 in1024.0 mb 0.00 in0.0 mm 0.00 in0.0 mm 0.37 in9.4 mm
08:40 PM 64.4°F18.0°C 58.5°F14.7°C 81% 3.8 mph ENE6.1 kmh ENE 5.4 mph8.7 kmh 30.24 in1024.0 mb 0.00 in0.0 mm 0.00 in0.0 mm 0.37 in9.4 mm
08:50 PM 64.0°F17.8°C 58.5°F14.7°C 82% 1.6 mph ENE2.6 kmh ENE 4.5 mph7.2 kmh 30.25 in1024.4 mb 0.00 in0.0 mm 0.00 in0.0 mm 0.37 in9.4 mm
09:00 PM 63.1°F17.3°C 57.9°F14.4°C 83% Calm Calm 3.1 mph5.0 kmh 30.25 in1024.4 mb 0.00 in0.0 mm 0.00 in0.0 mm 0.37 in9.4 mm
09:10 PM 62.6°F17.0°C 57.7°F14.3°C 84% Calm Calm 1.6 mph2.6 kmh 30.24 in1024.0 mb 0.00 in0.0 mm 0.00 in0.0 mm 0.37 in9.4 mm
09:20 PM 62.2°F16.8°C 58.0°F14.4°C 86% Calm Calm -- 30.24 in1024.0 mb 0.00 in0.0 mm 0.00 in0.0 mm 0.37 in9.4 mm
09:30 PM 61.7°F16.5°C 57.8°F14.3°C 87% Calm Calm -- 30.24 in1024.0 mb 0.00 in0.0 mm 0.00 in0.0 mm 0.37 in9.4 mm
09:40 PM 61.3°F16.3°C 57.8°F14.3°C 88% Calm Calm -- 30.24 in1024.0 mb 0.00 in0.0 mm 0.00 in0.0 mm 0.37 in9.4 mm
09:50 PM 61.2°F16.2°C 58.2°F14.6°C 90% Calm Calm -- 30.24 in1024.0 mb 0.00 in0.0 mm 0.00 in0.0 mm 0.37 in9.4 mm
10:00 PM 60.8°F16.0°C 58.2°F14.6°C 91% Calm Calm -- 30.23 in1023.7 mb 0.00 in0.0 mm 0.00 in0.0 mm 0.37 in9.4 mm
10:10 PM 60.4°F15.8°C 58.1°F14.5°C 92% Calm Calm -- 30.24 in1024.0 mb 0.00 in0.0 mm 0.00 in0.0 mm 0.37 in9.4 mm
10:20 PM 59.9°F15.5°C 57.9°F14.4°C 93% Calm Calm -- 30.24 in1024.0 mb 0.00 in0.0 mm 0.00 in0.0 mm 0.37 in9.4 mm
10:30 PM 59.5°F15.3°C 57.5°F14.2°C 93% Calm Calm -- 30.23 in1023.7 mb 0.00 in0.0 mm 0.00 in0.0 mm 0.37 in9.4 mm
10:40 PM 59.2°F15.1°C 57.5°F14.2°C 94% Calm Calm -- 30.23 in1023.7 mb 0.00 in0.0 mm 0.00 in0.0 mm 0.37 in9.4 mm
10:50 PM 59.0°F15.0°C 57.6°F14.2°C 95% Calm Calm -- 30.22 in1023.4 mb 0.00 in0.0 mm 0.00 in0.0 mm 0.37 in9.4 mm
11:00 PM 59.0°F15.0°C 57.9°F14.4°C 96% Calm Calm -- 30.22 in1023.4 mb 0.00 in0.0 mm 0.00 in0.0 mm 0.33 in8.4 mm
11:10 PM 58.6°F14.8°C 57.8°F14.3°C 97% Calm Calm -- 30.22 in1023.4 mb 0.00 in0.0 mm 0.00 in0.0 mm 0.33 in8.4 mm
11:20 PM 58.3°F14.6°C 57.4°F14.1°C 97% Calm Calm -- 30.22 in1023.4 mb 0.00 in0.0 mm 0.00 in0.0 mm 0.33 in8.4 mm
11:30 PM 58.5°F14.7°C 57.9°F14.4°C 98% Calm Calm -- 30.21 in1023.0 mb 0.00 in0.0 mm 0.00 in0.0 mm 0.33 in8.4 mm
11:40 PM 58.5°F14.7°C 58.2°F14.6°C 99% 1.6 mph N2.6 kmh N 2.2 mph3.5 kmh 30.21 in1023.0 mb 0.00 in0.0 mm 0.00 in0.0 mm 0.33 in8.4 mm
11:50 PM 58.3°F14.6°C 58.0°F14.4°C 99% Calm Calm 3.1 mph5.0 kmh 30.21 in1023.0 mb 0.00 in0.0 mm 0.00 in0.0 mm 0.33 in8.4 mm